sensor_id;sensor_type;location;lat;lon;timestamp;P1;durP1;ratioP1;P2;durP2;ratioP2
64799;SDS011;51233;51.982;4.594;2023-03-31T00:00:11;11.20;;;3.30;;
64799;SDS011;51233;51.982;4.594;2023-03-31T00:03:12;10.40;;;3.20;;
64799;SDS011;51233;51.982;4.594;2023-03-31T00:06:13;11.00;;;2.97;;
64799;SDS011;51233;51.982;4.594;2023-03-31T00:09:19;12.32;;;3.33;;
64799;SDS011;51233;51.982;4.594;2023-03-31T00:12:21;11.43;;;3.00;;
64799;SDS011;51233;51.982;4.594;2023-03-31T00:15:21;13.85;;;2.90;;
64799;SDS011;51233;51.982;4.594;2023-03-31T00:18:21;11.90;;;3.33;;
64799;SDS011;51233;51.982;4.594;2023-03-31T00:21:22;7.17;;;2.53;;
64799;SDS011;51233;51.982;4.594;2023-03-31T00:24:28;10.50;;;3.28;;
64799;SDS011;51233;51.982;4.594;2023-03-31T00:27:31;12.32;;;2.85;;
64799;SDS011;51233;51.982;4.594;2023-03-31T00:30:32;11.65;;;3.13;;
64799;SDS011;51233;51.982;4.594;2023-03-31T00:33:32;8.88;;;3.00;;
64799;SDS011;51233;51.982;4.594;2023-03-31T00:36:32;12.50;;;3.22;;
64799;SDS011;51233;51.982;4.594;2023-03-31T00:39:35;14.98;;;3.60;;
64799;SDS011;51233;51.982;4.594;2023-03-31T00:42:40;10.75;;;3.08;;
64799;SDS011;51233;51.982;4.594;2023-03-31T00:45:40;8.77;;;2.58;;
64799;SDS011;51233;51.982;4.594;2023-03-31T00:48:48;8.13;;;2.80;;
64799;SDS011;51233;51.982;4.594;2023-03-31T00:51:50;12.13;;;3.03;;
64799;SDS011;51233;51.982;4.594;2023-03-31T00:54:54;9.20;;;3.05;;
64799;SDS011;51233;51.982;4.594;2023-03-31T00:57:55;9.93;;;3.00;;
64799;SDS011;51233;51.982;4.594;2023-03-31T01:00:56;7.60;;;2.85;;
64799;SDS011;51233;51.982;4.594;2023-03-31T01:03:57;8.32;;;2.85;;
64799;SDS011;51233;51.982;4.594;2023-03-31T01:07:01;9.47;;;3.03;;
64799;SDS011;51233;51.982;4.594;2023-03-31T01:10:02;9.50;;;3.05;;
64799;SDS011;51233;51.982;4.594;2023-03-31T01:13:04;10.50;;;3.10;;
64799;SDS011;51233;51.982;4.594;2023-03-31T01:16:04;11.30;;;2.77;;
64799;SDS011;51233;51.982;4.594;2023-03-31T01:19:06;10.82;;;3.00;;
64799;SDS011;51233;51.982;4.594;2023-03-31T01:28:30;11.00;;;3.08;;
64799;SDS011;51233;51.982;4.594;2023-03-31T01:35:11;9.70;;;3.20;;
64799;SDS011;51233;51.982;4.594;2023-03-31T01:41:36;10.35;;;2.78;;
64799;SDS011;51233;51.982;4.594;2023-03-31T01:44:48;14.85;;;3.05;;
64799;SDS011;51233;51.982;4.594;2023-03-31T01:51:10;10.75;;;3.13;;
64799;SDS011;51233;51.982;4.594;2023-03-31T02:00:27;9.65;;;3.10;;
64799;SDS011;51233;51.982;4.594;2023-03-31T02:03:32;8.75;;;2.80;;
64799;SDS011;51233;51.982;4.594;2023-03-31T02:06:34;9.02;;;2.42;;
64799;SDS011;51233;51.982;4.594;2023-03-31T02:09:39;12.68;;;3.30;;
64799;SDS011;51233;51.982;4.594;2023-03-31T02:12:40;9.88;;;3.08;;
64799;SDS011;51233;51.982;4.594;2023-03-31T02:15:43;11.07;;;2.67;;
64799;SDS011;51233;51.982;4.594;2023-03-31T02:18:45;10.23;;;2.35;;
64799;SDS011;51233;51.982;4.594;2023-03-31T02:21:47;9.60;;;2.90;;
64799;SDS011;51233;51.982;4.594;2023-03-31T02:24:49;5.72;;;2.28;;
64799;SDS011;51233;51.982;4.594;2023-03-31T02:27:52;10.00;;;2.70;;
64799;SDS011;51233;51.982;4.594;2023-03-31T02:34:02;8.65;;;2.50;;
64799;SDS011;51233;51.982;4.594;2023-03-31T02:37:03;6.65;;;2.30;;
64799;SDS011;51233;51.982;4.594;2023-03-31T02:40:09;9.20;;;2.60;;
64799;SDS011;51233;51.982;4.594;2023-03-31T02:43:10;7.60;;;2.15;;
64799;SDS011;51233;51.982;4.594;2023-03-31T02:46:10;8.85;;;2.65;;
64799;SDS011;51233;51.982;4.594;2023-03-31T02:49:10;7.57;;;2.58;;
64799;SDS011;51233;51.982;4.594;2023-03-31T03:05:18;8.40;;;2.63;;
64799;SDS011;51233;51.982;4.594;2023-03-31T03:08:41;9.27;;;2.40;;
64799;SDS011;51233;51.982;4.594;2023-03-31T03:18:06;5.38;;;1.92;;
64799;SDS011;51233;51.982;4.594;2023-03-31T03:21:06;5.90;;;1.85;;
64799;SDS011;51233;51.982;4.594;2023-03-31T03:24:09;4.85;;;1.77;;
64799;SDS011;51233;51.982;4.594;2023-03-31T03:27:09;6.80;;;2.10;;
64799;SDS011;51233;51.982;4.594;2023-03-31T03:30:10;6.00;;;1.95;;
64799;SDS011;51233;51.982;4.594;2023-03-31T03:33:11;5.10;;;1.60;;
64799;SDS011;51233;51.982;4.594;2023-03-31T03:36:15;4.93;;;1.70;;
64799;SDS011;51233;51.982;4.594;2023-03-31T03:39:16;6.55;;;1.98;;
64799;SDS011;51233;51.982;4.594;2023-03-31T03:42:16;5.28;;;1.88;;
64799;SDS011;51233;51.982;4.594;2023-03-31T03:45:16;6.25;;;1.80;;
64799;SDS011;51233;51.982;4.594;2023-03-31T03:48:25;6.18;;;2.20;;
64799;SDS011;51233;51.982;4.594;2023-03-31T03:51:25;5.30;;;2.30;;
64799;SDS011;51233;51.982;4.594;2023-03-31T03:54:26;4.32;;;1.88;;
64799;SDS011;51233;51.982;4.594;2023-03-31T03:57:29;6.07;;;2.45;;
64799;SDS011;51233;51.982;4.594;2023-03-31T04:00:29;6.55;;;2.20;;
64799;SDS011;51233;51.982;4.594;2023-03-31T04:03:29;7.40;;;2.55;;
64799;SDS011;51233;51.982;4.594;2023-03-31T04:06:30;7.17;;;2.47;;
64799;SDS011;51233;51.982;4.594;2023-03-31T04:09:30;3.83;;;1.98;;
64799;SDS011;51233;51.982;4.594;2023-03-31T04:12:32;8.67;;;2.70;;
64799;SDS011;51233;51.982;4.594;2023-03-31T04:15:32;8.27;;;2.72;;
64799;SDS011;51233;51.982;4.594;2023-03-31T04:18:33;6.28;;;2.30;;
64799;SDS011;51233;51.982;4.594;2023-03-31T04:21:36;8.50;;;2.53;;
64799;SDS011;51233;51.982;4.594;2023-03-31T04:24:36;7.23;;;2.47;;
64799;SDS011;51233;51.982;4.594;2023-03-31T04:27:37;6.50;;;2.17;;
64799;SDS011;51233;51.982;4.594;2023-03-31T04:30:37;7.80;;;2.47;;
64799;SDS011;51233;51.982;4.594;2023-03-31T04:33:38;8.57;;;2.73;;
64799;SDS011;51233;51.982;4.594;2023-03-31T04:36:43;7.00;;;2.63;;
64799;SDS011;51233;51.982;4.594;2023-03-31T04:39:45;6.25;;;2.45;;
64799;SDS011;51233;51.982;4.594;2023-03-31T04:42:49;6.80;;;2.63;;
64799;SDS011;51233;51.982;4.594;2023-03-31T04:45:50;6.65;;;2.30;;
64799;SDS011;51233;51.982;4.594;2023-03-31T04:48:50;7.10;;;2.42;;
64799;SDS011;51233;51.982;4.594;2023-03-31T04:51:57;7.38;;;2.30;;
64799;SDS011;51233;51.982;4.594;2023-03-31T04:54:57;4.93;;;2.25;;
64799;SDS011;51233;51.982;4.594;2023-03-31T04:57:57;6.10;;;2.58;;
64799;SDS011;51233;51.982;4.594;2023-03-31T05:00:57;4.30;;;1.98;;
64799;SDS011;51233;51.982;4.594;2023-03-31T05:03:58;7.20;;;2.50;;
64799;SDS011;51233;51.982;4.594;2023-03-31T05:07:01;6.35;;;2.17;;
64799;SDS011;51233;51.982;4.594;2023-03-31T05:10:01;6.53;;;1.98;;
64799;SDS011;51233;51.982;4.594;2023-03-31T05:13:01;5.53;;;2.28;;
64799;SDS011;51233;51.982;4.594;2023-03-31T05:16:11;5.88;;;1.90;;
64799;SDS011;51233;51.982;4.594;2023-03-31T05:19:13;3.58;;;1.63;;
64799;SDS011;51233;51.982;4.594;2023-03-31T05:22:13;4.82;;;1.73;;
64799;SDS011;51233;51.982;4.594;2023-03-31T05:25:13;4.27;;;1.60;;
64799;SDS011;51233;51.982;4.594;2023-03-31T05:28:17;3.33;;;1.95;;
64799;SDS011;51233;51.982;4.594;2023-03-31T05:31:17;3.17;;;1.30;;
64799;SDS011;51233;51.982;4.594;2023-03-31T05:34:20;5.10;;;1.40;;
64799;SDS011;51233;51.982;4.594;2023-03-31T05:37:20;2.67;;;1.38;;
64799;SDS011;51233;51.982;4.594;2023-03-31T05:40:20;4.28;;;1.60;;
64799;SDS011;51233;51.982;4.594;2023-03-31T05:43:20;3.53;;;1.60;;
64799;SDS011;51233;51.982;4.594;2023-03-31T05:46:21;6.10;;;1.77;;
64799;SDS011;51233;51.982;4.594;2023-03-31T05:49:21;3.50;;;1.57;;
64799;SDS011;51233;51.982;4.594;2023-03-31T05:52:21;4.00;;;1.40;;
64799;SDS011;51233;51.982;4.594;2023-03-31T05:55:21;3.30;;;1.45;;
64799;SDS011;51233;51.982;4.594;2023-03-31T05:58:22;6.60;;;1.80;;
64799;SDS011;51233;51.982;4.594;2023-03-31T06:01:22;3.12;;;1.60;;
64799;SDS011;51233;51.982;4.594;2023-03-31T06:04:23;4.63;;;1.60;;
64799;SDS011;51233;51.982;4.594;2023-03-31T06:07:23;4.65;;;2.00;;
64799;SDS011;51233;51.982;4.594;2023-03-31T06:10:27;3.45;;;1.55;;
64799;SDS011;51233;51.982;4.594;2023-03-31T06:13:34;5.30;;;1.67;;
64799;SDS011;51233;51.982;4.594;2023-03-31T06:16:37;4.38;;;1.30;;
64799;SDS011;51233;51.982;4.594;2023-03-31T06:19:37;2.70;;;1.30;;
64799;SDS011;51233;51.982;4.594;2023-03-31T06:22:39;4.07;;;1.50;;
64799;SDS011;51233;51.982;4.594;2023-03-31T06:25:39;3.23;;;1.33;;
64799;SDS011;51233;51.982;4.594;2023-03-31T06:28:39;7.10;;;1.38;;
64799;SDS011;51233;51.982;4.594;2023-03-31T06:31:39;2.97;;;1.25;;
64799;SDS011;51233;51.982;4.594;2023-03-31T06:34:42;2.30;;;1.15;;
64799;SDS011;51233;51.982;4.594;2023-03-31T06:37:42;3.40;;;1.67;;
64799;SDS011;51233;51.982;4.594;2023-03-31T06:40:43;3.33;;;1.30;;
64799;SDS011;51233;51.982;4.594;2023-03-31T06:43:43;2.20;;;1.00;;
64799;SDS011;51233;51.982;4.594;2023-03-31T06:46:46;2.47;;;1.20;;
64799;SDS011;51233;51.982;4.594;2023-03-31T06:49:46;4.00;;;1.30;;
64799;SDS011;51233;51.982;4.594;2023-03-31T06:52:46;3.47;;;1.30;;
64799;SDS011;51233;51.982;4.594;2023-03-31T06:55:46;3.20;;;1.27;;
64799;SDS011;51233;51.982;4.594;2023-03-31T06:58:47;2.55;;;1.20;;
64799;SDS011;51233;51.982;4.594;2023-03-31T07:01:47;3.60;;;1.30;;
64799;SDS011;51233;51.982;4.594;2023-03-31T07:04:49;7.10;;;2.10;;
64799;SDS011;51233;51.982;4.594;2023-03-31T07:07:49;4.63;;;1.58;;
64799;SDS011;51233;51.982;4.594;2023-03-31T07:10:52;4.18;;;1.50;;
64799;SDS011;51233;51.982;4.594;2023-03-31T07:13:53;7.60;;;1.85;;
64799;SDS011;51233;51.982;4.594;2023-03-31T07:16:53;3.72;;;1.63;;
64799;SDS011;51233;51.982;4.594;2023-03-31T07:19:53;4.18;;;1.50;;
64799;SDS011;51233;51.982;4.594;2023-03-31T07:22:53;4.47;;;1.77;;
64799;SDS011;51233;51.982;4.594;2023-03-31T07:25:53;6.40;;;2.03;;
64799;SDS011;51233;51.982;4.594;2023-03-31T07:29:01;6.07;;;1.92;;
64799;SDS011;51233;51.982;4.594;2023-03-31T07:32:02;5.03;;;1.40;;
64799;SDS011;51233;51.982;4.594;2023-03-31T07:35:02;6.50;;;2.00;;
64799;SDS011;51233;51.982;4.594;2023-03-31T07:38:03;7.82;;;2.33;;
64799;SDS011;51233;51.982;4.594;2023-03-31T07:41:03;8.98;;;2.05;;
64799;SDS011;51233;51.982;4.594;2023-03-31T07:44:03;6.47;;;2.30;;
64799;SDS011;51233;51.982;4.594;2023-03-31T07:47:03;10.40;;;2.80;;
64799;SDS011;51233;51.982;4.594;2023-03-31T07:50:05;7.47;;;2.20;;
64799;SDS011;51233;51.982;4.594;2023-03-31T07:53:05;9.00;;;2.72;;
64799;SDS011;51233;51.982;4.594;2023-03-31T07:56:06;12.18;;;2.80;;
64799;SDS011;51233;51.982;4.594;2023-03-31T07:59:06;9.15;;;2.33;;
64799;SDS011;51233;51.982;4.594;2023-03-31T08:02:08;13.07;;;2.90;;
64799;SDS011;51233;51.982;4.594;2023-03-31T08:05:10;9.63;;;2.85;;
64799;SDS011;51233;51.982;4.594;2023-03-31T08:08:11;9.43;;;2.67;;
64799;SDS011;51233;51.982;4.594;2023-03-31T08:11:11;11.23;;;3.10;;
64799;SDS011;51233;51.982;4.594;2023-03-31T08:14:11;8.50;;;2.33;;
64799;SDS011;51233;51.982;4.594;2023-03-31T08:17:11;11.20;;;2.50;;
64799;SDS011;51233;51.982;4.594;2023-03-31T08:20:12;9.60;;;2.63;;
64799;SDS011;51233;51.982;4.594;2023-03-31T08:23:12;12.03;;;2.80;;
64799;SDS011;51233;51.982;4.594;2023-03-31T08:29:12;9.33;;;2.63;;
64799;SDS011;51233;51.982;4.594;2023-03-31T08:32:12;9.40;;;2.92;;
64799;SDS011;51233;51.982;4.594;2023-03-31T08:35:12;12.02;;;2.97;;
64799;SDS011;51233;51.982;4.594;2023-03-31T08:38:13;14.13;;;3.03;;
64799;SDS011;51233;51.982;4.594;2023-03-31T08:44:34;16.55;;;3.58;;
64799;SDS011;51233;51.982;4.594;2023-03-31T08:47:35;12.80;;;3.28;;
64799;SDS011;51233;51.982;4.594;2023-03-31T08:50:37;11.80;;;3.70;;
64799;SDS011;51233;51.982;4.594;2023-03-31T08:53:41;16.83;;;3.80;;
64799;SDS011;51233;51.982;4.594;2023-03-31T08:56:43;15.77;;;4.03;;
64799;SDS011;51233;51.982;4.594;2023-03-31T08:59:44;16.02;;;4.10;;
64799;SDS011;51233;51.982;4.594;2023-03-31T09:02:59;12.90;;;4.15;;
64799;SDS011;51233;51.982;4.594;2023-03-31T09:06:00;17.38;;;3.88;;
64799;SDS011;51233;51.982;4.594;2023-03-31T09:09:01;16.13;;;4.43;;
64799;SDS011;51233;51.982;4.594;2023-03-31T09:12:08;13.57;;;4.13;;
64799;SDS011;51233;51.982;4.594;2023-03-31T09:15:10;18.00;;;4.38;;
64799;SDS011;51233;51.982;4.594;2023-03-31T09:18:33;13.38;;;4.00;;
64799;SDS011;51233;51.982;4.594;2023-03-31T09:21:32;16.30;;;4.72;;
64799;SDS011;51233;51.982;4.594;2023-03-31T09:24:35;17.33;;;4.15;;
64799;SDS011;51233;51.982;4.594;2023-03-31T09:27:39;13.38;;;4.20;;
64799;SDS011;51233;51.982;4.594;2023-03-31T09:30:41;17.42;;;4.18;;
64799;SDS011;51233;51.982;4.594;2023-03-31T09:33:43;19.52;;;5.32;;
64799;SDS011;51233;51.982;4.594;2023-03-31T09:36:44;15.10;;;3.78;;
64799;SDS011;51233;51.982;4.594;2023-03-31T09:39:44;16.77;;;4.25;;
64799;SDS011;51233;51.982;4.594;2023-03-31T09:42:45;13.35;;;3.85;;
64799;SDS011;51233;51.982;4.594;2023-03-31T09:45:46;14.85;;;4.25;;
64799;SDS011;51233;51.982;4.594;2023-03-31T09:48:52;15.37;;;4.27;;
64799;SDS011;51233;51.982;4.594;2023-03-31T09:52:01;16.15;;;4.05;;
64799;SDS011;51233;51.982;4.594;2023-03-31T09:55:03;14.45;;;3.63;;
64799;SDS011;51233;51.982;4.594;2023-03-31T09:58:11;18.50;;;4.82;;
64799;SDS011;51233;51.982;4.594;2023-03-31T10:01:13;15.00;;;3.88;;
64799;SDS011;51233;51.982;4.594;2023-03-31T10:04:21;13.67;;;3.50;;
64799;SDS011;51233;51.982;4.594;2023-03-31T10:07:22;11.93;;;3.65;;
64799;SDS011;51233;51.982;4.594;2023-03-31T10:10:27;18.60;;;3.75;;
64799;SDS011;51233;51.982;4.594;2023-03-31T10:13:34;12.65;;;3.20;;
64799;SDS011;51233;51.982;4.594;2023-03-31T10:16:56;14.95;;;4.07;;
64799;SDS011;51233;51.982;4.594;2023-03-31T10:19:58;16.85;;;4.07;;
64799;SDS011;51233;51.982;4.594;2023-03-31T10:23:47;7.30;;;2.47;;
64799;SDS011;51233;51.982;4.594;2023-03-31T10:26:28;10.73;;;3.20;;
64799;SDS011;51233;51.982;4.594;2023-03-31T10:29:31;13.13;;;3.53;;
64799;SDS011;51233;51.982;4.594;2023-03-31T10:32:33;12.27;;;2.85;;
64799;SDS011;51233;51.982;4.594;2023-03-31T10:35:36;9.65;;;3.20;;
64799;SDS011;51233;51.982;4.594;2023-03-31T10:38:37;13.80;;;3.93;;
64799;SDS011;51233;51.982;4.594;2023-03-31T10:41:39;13.80;;;3.78;;
64799;SDS011;51233;51.982;4.594;2023-03-31T10:44:40;14.57;;;3.63;;
64799;SDS011;51233;51.982;4.594;2023-03-31T10:47:52;10.00;;;2.83;;
64799;SDS011;51233;51.982;4.594;2023-03-31T10:50:57;15.15;;;4.30;;
64799;SDS011;51233;51.982;4.594;2023-03-31T10:53:59;13.13;;;3.47;;
64799;SDS011;51233;51.982;4.594;2023-03-31T10:57:00;17.25;;;3.47;;
64799;SDS011;51233;51.982;4.594;2023-03-31T11:00:07;14.07;;;3.58;;
64799;SDS011;51233;51.982;4.594;2023-03-31T11:03:20;11.55;;;2.90;;
64799;SDS011;51233;51.982;4.594;2023-03-31T11:06:32;13.25;;;3.58;;
64799;SDS011;51233;51.982;4.594;2023-03-31T11:16:38;10.68;;;3.47;;
64799;SDS011;51233;51.982;4.594;2023-03-31T11:19:53;9.63;;;2.92;;
64799;SDS011;51233;51.982;4.594;2023-03-31T11:22:58;8.85;;;2.53;;
64799;SDS011;51233;51.982;4.594;2023-03-31T11:26:05;9.35;;;2.70;;
64799;SDS011;51233;51.982;4.594;2023-03-31T11:29:11;9.52;;;2.80;;
64799;SDS011;51233;51.982;4.594;2023-03-31T11:32:20;8.45;;;2.50;;
64799;SDS011;51233;51.982;4.594;2023-03-31T11:42:05;7.65;;;2.17;;
64799;SDS011;51233;51.982;4.594;2023-03-31T11:48:17;6.13;;;2.00;;
64799;SDS011;51233;51.982;4.594;2023-03-31T11:51:25;7.15;;;1.98;;
64799;SDS011;51233;51.982;4.594;2023-03-31T11:54:28;5.40;;;1.92;;
64799;SDS011;51233;51.982;4.594;2023-03-31T11:57:32;6.40;;;1.80;;
64799;SDS011;51233;51.982;4.594;2023-03-31T12:00:37;5.22;;;1.52;;
64799;SDS011;51233;51.982;4.594;2023-03-31T12:03:42;5.47;;;2.03;;
64799;SDS011;51233;51.982;4.594;2023-03-31T12:06:43;4.63;;;1.73;;
64799;SDS011;51233;51.982;4.594;2023-03-31T12:12:58;7.95;;;2.40;;
64799;SDS011;51233;51.982;4.594;2023-03-31T12:16:19;7.38;;;2.60;;
64799;SDS011;51233;51.982;4.594;2023-03-31T12:19:28;7.13;;;2.85;;
64799;SDS011;51233;51.982;4.594;2023-03-31T12:22:38;10.65;;;2.90;;
64799;SDS011;51233;51.982;4.594;2023-03-31T12:28:43;12.43;;;2.80;;
64799;SDS011;51233;51.982;4.594;2023-03-31T12:31:45;9.13;;;3.15;;
64799;SDS011;51233;51.982;4.594;2023-03-31T12:34:47;10.63;;;2.80;;
64799;SDS011;51233;51.982;4.594;2023-03-31T12:41:34;8.13;;;2.25;;
64799;SDS011;51233;51.982;4.594;2023-03-31T12:44:34;10.50;;;2.67;;
64799;SDS011;51233;51.982;4.594;2023-03-31T12:47:42;12.88;;;2.85;;
64799;SDS011;51233;51.982;4.594;2023-03-31T12:50:55;8.88;;;2.63;;
64799;SDS011;51233;51.982;4.594;2023-03-31T12:57:04;8.18;;;2.13;;
64799;SDS011;51233;51.982;4.594;2023-03-31T13:00:21;9.15;;;2.63;;
64799;SDS011;51233;51.982;4.594;2023-03-31T13:16:02;7.38;;;2.05;;
64799;SDS011;51233;51.982;4.594;2023-03-31T13:19:03;3.70;;;1.55;;
64799;SDS011;51233;51.982;4.594;2023-03-31T13:22:03;5.20;;;1.50;;
64799;SDS011;51233;51.982;4.594;2023-03-31T13:28:41;4.75;;;1.65;;
64799;SDS011;51233;51.982;4.594;2023-03-31T13:35:04;4.40;;;1.63;;
64799;SDS011;51233;51.982;4.594;2023-03-31T13:38:08;6.05;;;1.73;;
64799;SDS011;51233;51.982;4.594;2023-03-31T13:45:00;3.80;;;1.70;;
64799;SDS011;51233;51.982;4.594;2023-03-31T14:01:08;4.20;;;1.80;;
64799;SDS011;51233;51.982;4.594;2023-03-31T14:10:35;5.10;;;1.33;;
64799;SDS011;51233;51.982;4.594;2023-03-31T14:13:36;3.75;;;1.70;;
64799;SDS011;51233;51.982;4.594;2023-03-31T14:16:37;6.53;;;1.77;;
64799;SDS011;51233;51.982;4.594;2023-03-31T14:32:16;4.68;;;1.58;;
64799;SDS011;51233;51.982;4.594;2023-03-31T14:35:23;5.32;;;1.58;;
64799;SDS011;51233;51.982;4.594;2023-03-31T14:38:25;5.43;;;1.80;;
64799;SDS011;51233;51.982;4.594;2023-03-31T14:41:26;6.20;;;1.70;;
64799;SDS011;51233;51.982;4.594;2023-03-31T14:44:29;3.47;;;1.50;;
64799;SDS011;51233;51.982;4.594;2023-03-31T14:47:30;4.95;;;1.48;;
64799;SDS011;51233;51.982;4.594;2023-03-31T14:50:36;2.88;;;1.20;;
64799;SDS011;51233;51.982;4.594;2023-03-31T14:53:36;5.00;;;1.35;;
64799;SDS011;51233;51.982;4.594;2023-03-31T14:56:44;3.65;;;1.70;;
64799;SDS011;51233;51.982;4.594;2023-03-31T14:59:45;5.28;;;1.50;;
64799;SDS011;51233;51.982;4.594;2023-03-31T15:02:46;5.23;;;1.67;;
64799;SDS011;51233;51.982;4.594;2023-03-31T15:05:46;4.57;;;1.47;;
64799;SDS011;51233;51.982;4.594;2023-03-31T15:08:47;4.28;;;1.50;;
64799;SDS011;51233;51.982;4.594;2023-03-31T15:11:47;2.00;;;1.02;;
64799;SDS011;51233;51.982;4.594;2023-03-31T15:15:10;5.72;;;1.60;;
64799;SDS011;51233;51.982;4.594;2023-03-31T15:18:11;5.57;;;1.67;;
64799;SDS011;51233;51.982;4.594;2023-03-31T15:21:18;4.20;;;1.30;;
64799;SDS011;51233;51.982;4.594;2023-03-31T15:24:39;3.72;;;1.50;;
64799;SDS011;51233;51.982;4.594;2023-03-31T15:27:41;1.88;;;1.00;;
64799;SDS011;51233;51.982;4.594;2023-03-31T15:30:43;4.57;;;1.75;;
64799;SDS011;51233;51.982;4.594;2023-03-31T15:33:45;4.80;;;1.35;;
64799;SDS011;51233;51.982;4.594;2023-03-31T15:36:45;4.72;;;1.33;;
64799;SDS011;51233;51.982;4.594;2023-03-31T15:39:49;7.00;;;1.67;;
64799;SDS011;51233;51.982;4.594;2023-03-31T15:42:52;5.28;;;1.50;;
64799;SDS011;51233;51.982;4.594;2023-03-31T15:45:53;3.85;;;1.63;;
64799;SDS011;51233;51.982;4.594;2023-03-31T15:48:54;3.35;;;1.58;;
64799;SDS011;51233;51.982;4.594;2023-03-31T15:51:57;4.50;;;2.38;;
64799;SDS011;51233;51.982;4.594;2023-03-31T15:54:59;3.63;;;1.50;;
64799;SDS011;51233;51.982;4.594;2023-03-31T15:58:00;2.65;;;1.42;;
64799;SDS011;51233;51.982;4.594;2023-03-31T16:01:02;3.80;;;1.70;;
64799;SDS011;51233;51.982;4.594;2023-03-31T16:04:07;4.35;;;2.17;;
64799;SDS011;51233;51.982;4.594;2023-03-31T16:07:13;2.45;;;1.17;;
64799;SDS011;51233;51.982;4.594;2023-03-31T16:10:17;4.63;;;1.38;;
64799;SDS011;51233;51.982;4.594;2023-03-31T16:13:18;2.95;;;1.23;;
64799;SDS011;51233;51.982;4.594;2023-03-31T16:16:23;4.10;;;1.67;;
64799;SDS011;51233;51.982;4.594;2023-03-31T16:19:25;3.53;;;1.48;;
64799;SDS011;51233;51.982;4.594;2023-03-31T16:22:29;3.20;;;1.50;;
64799;SDS011;51233;51.982;4.594;2023-03-31T16:25:33;3.78;;;1.50;;
64799;SDS011;51233;51.982;4.594;2023-03-31T16:28:38;2.53;;;1.55;;
64799;SDS011;51233;51.982;4.594;2023-03-31T16:31:38;4.78;;;1.40;;
64799;SDS011;51233;51.982;4.594;2023-03-31T16:34:58;4.97;;;1.60;;
64799;SDS011;51233;51.982;4.594;2023-03-31T16:37:59;3.00;;;1.88;;
64799;SDS011;51233;51.982;4.594;2023-03-31T16:41:00;4.88;;;1.35;;
64799;SDS011;51233;51.982;4.594;2023-03-31T16:44:01;5.68;;;2.42;;
64799;SDS011;51233;51.982;4.594;2023-03-31T16:47:01;4.07;;;1.50;;
64799;SDS011;51233;51.982;4.594;2023-03-31T16:50:02;3.87;;;1.60;;
64799;SDS011;51233;51.982;4.594;2023-03-31T16:53:05;7.70;;;1.40;;
64799;SDS011;51233;51.982;4.594;2023-03-31T16:56:06;4.78;;;1.50;;
64799;SDS011;51233;51.982;4.594;2023-03-31T16:59:07;8.60;;;1.70;;
64799;SDS011;51233;51.982;4.594;2023-03-31T17:02:09;3.20;;;1.40;;
64799;SDS011;51233;51.982;4.594;2023-03-31T17:05:09;2.17;;;1.10;;
64799;SDS011;51233;51.982;4.594;2023-03-31T17:08:12;3.87;;;1.40;;
64799;SDS011;51233;51.982;4.594;2023-03-31T17:11:13;3.55;;;1.45;;
64799;SDS011;51233;51.982;4.594;2023-03-31T17:14:13;2.53;;;1.33;;
64799;SDS011;51233;51.982;4.594;2023-03-31T17:17:13;2.28;;;1.20;;
64799;SDS011;51233;51.982;4.594;2023-03-31T17:20:14;3.58;;;1.50;;
64799;SDS011;51233;51.982;4.594;2023-03-31T17:23:14;3.43;;;1.77;;
64799;SDS011;51233;51.982;4.594;2023-03-31T17:26:15;6.00;;;1.93;;
64799;SDS011;51233;51.982;4.594;2023-03-31T17:29:18;5.47;;;3.40;;
64799;SDS011;51233;51.982;4.594;2023-03-31T17:32:19;5.20;;;2.03;;
64799;SDS011;51233;51.982;4.594;2023-03-31T17:35:22;6.07;;;2.38;;
64799;SDS011;51233;51.982;4.594;2023-03-31T17:38:23;5.20;;;2.60;;
64799;SDS011;51233;51.982;4.594;2023-03-31T17:41:23;5.80;;;3.35;;
64799;SDS011;51233;51.982;4.594;2023-03-31T17:44:23;6.97;;;2.97;;
64799;SDS011;51233;51.982;4.594;2023-03-31T17:47:23;7.63;;;3.55;;
64799;SDS011;51233;51.982;4.594;2023-03-31T17:50:24;5.20;;;2.00;;
64799;SDS011;51233;51.982;4.594;2023-03-31T17:53:24;7.30;;;5.03;;
64799;SDS011;51233;51.982;4.594;2023-03-31T17:56:24;2.97;;;1.50;;
64799;SDS011;51233;51.982;4.594;2023-03-31T17:59:27;5.30;;;2.47;;
64799;SDS011;51233;51.982;4.594;2023-03-31T18:02:28;5.88;;;3.10;;
64799;SDS011;51233;51.982;4.594;2023-03-31T18:05:28;7.43;;;3.65;;
64799;SDS011;51233;51.982;4.594;2023-03-31T18:08:28;5.88;;;3.15;;
64799;SDS011;51233;51.982;4.594;2023-03-31T18:11:29;7.55;;;2.65;;
64799;SDS011;51233;51.982;4.594;2023-03-31T18:14:30;10.50;;;3.20;;
64799;SDS011;51233;51.982;4.594;2023-03-31T18:17:30;7.80;;;3.72;;
64799;SDS011;51233;51.982;4.594;2023-03-31T18:20:31;8.25;;;4.40;;
64799;SDS011;51233;51.982;4.594;2023-03-31T18:23:31;8.95;;;5.72;;
64799;SDS011;51233;51.982;4.594;2023-03-31T18:26:32;9.80;;;3.25;;
64799;SDS011;51233;51.982;4.594;2023-03-31T18:29:32;8.27;;;3.20;;
64799;SDS011;51233;51.982;4.594;2023-03-31T18:32:33;8.23;;;3.37;;
64799;SDS011;51233;51.982;4.594;2023-03-31T18:35:33;6.60;;;2.40;;
64799;SDS011;51233;51.982;4.594;2023-03-31T18:38:33;9.40;;;3.23;;
64799;SDS011;51233;51.982;4.594;2023-03-31T18:41:35;6.63;;;2.70;;
64799;SDS011;51233;51.982;4.594;2023-03-31T18:44:39;15.20;;;4.80;;
64799;SDS011;51233;51.982;4.594;2023-03-31T18:47:39;8.53;;;3.13;;
64799;SDS011;51233;51.982;4.594;2023-03-31T18:50:39;5.10;;;2.55;;
64799;SDS011;51233;51.982;4.594;2023-03-31T18:53:39;8.02;;;2.90;;
64799;SDS011;51233;51.982;4.594;2023-03-31T18:56:40;5.57;;;2.30;;
64799;SDS011;51233;51.982;4.594;2023-03-31T18:59:40;3.58;;;1.75;;
64799;SDS011;51233;51.982;4.594;2023-03-31T19:02:41;4.65;;;1.80;;
64799;SDS011;51233;51.982;4.594;2023-03-31T19:05:41;6.30;;;2.13;;
64799;SDS011;51233;51.982;4.594;2023-03-31T19:08:41;3.58;;;2.00;;
64799;SDS011;51233;51.982;4.594;2023-03-31T19:11:42;4.43;;;1.70;;
64799;SDS011;51233;51.982;4.594;2023-03-31T19:14:42;6.10;;;2.40;;
64799;SDS011;51233;51.982;4.594;2023-03-31T19:17:42;7.00;;;2.73;;
64799;SDS011;51233;51.982;4.594;2023-03-31T19:20:45;5.77;;;2.20;;
64799;SDS011;51233;51.982;4.594;2023-03-31T19:23:45;6.40;;;2.67;;
64799;SDS011;51233;51.982;4.594;2023-03-31T19:26:45;5.85;;;2.33;;
64799;SDS011;51233;51.982;4.594;2023-03-31T19:29:46;4.77;;;2.17;;
64799;SDS011;51233;51.982;4.594;2023-03-31T19:32:47;4.55;;;2.03;;
64799;SDS011;51233;51.982;4.594;2023-03-31T19:35:47;5.43;;;1.58;;
64799;SDS011;51233;51.982;4.594;2023-03-31T19:41:50;4.30;;;2.05;;
64799;SDS011;51233;51.982;4.594;2023-03-31T19:44:50;5.47;;;1.95;;
64799;SDS011;51233;51.982;4.594;2023-03-31T19:47:50;3.67;;;2.00;;
64799;SDS011;51233;51.982;4.594;2023-03-31T19:50:52;6.30;;;2.30;;
64799;SDS011;51233;51.982;4.594;2023-03-31T19:53:52;9.63;;;3.22;;
64799;SDS011;51233;51.982;4.594;2023-03-31T19:56:53;9.70;;;2.88;;
64799;SDS011;51233;51.982;4.594;2023-03-31T19:59:53;7.78;;;3.00;;
64799;SDS011;51233;51.982;4.594;2023-03-31T20:02:53;11.85;;;3.17;;
64799;SDS011;51233;51.982;4.594;2023-03-31T20:06:03;10.70;;;3.60;;
64799;SDS011;51233;51.982;4.594;2023-03-31T20:09:04;6.40;;;2.50;;
64799;SDS011;51233;51.982;4.594;2023-03-31T20:12:05;8.38;;;3.13;;
64799;SDS011;51233;51.982;4.594;2023-03-31T20:15:05;9.38;;;3.20;;
64799;SDS011;51233;51.982;4.594;2023-03-31T20:18:06;8.55;;;3.03;;
64799;SDS011;51233;51.982;4.594;2023-03-31T20:21:08;13.07;;;3.58;;
64799;SDS011;51233;51.982;4.594;2023-03-31T20:24:15;13.50;;;4.35;;
64799;SDS011;51233;51.982;4.594;2023-03-31T20:27:16;14.50;;;3.42;;
64799;SDS011;51233;51.982;4.594;2023-03-31T20:30:17;16.02;;;3.75;;
64799;SDS011;51233;51.982;4.594;2023-03-31T20:33:17;16.25;;;4.80;;